KONT/ONT METAR and TAF weather

Enter ICAO airport designator
Station Type Date Time Source
KONT METAR 2020/07/12 19:53 UTC NOAA

KONT 121953Z 24008KT 10SM FEW130 FEW230 38/01 A2988 RMK AO2 SLP094 T03780011


Station Type Date Time Source
KONT Decoded METAR 2020/07/12 19:53 UTC NOAA

ONTARIO INTERNATIONAL AIRPORT, CA, United States (KONT) 34-03N 117-35W 275M
Jul 12, 2020 - 03:53 PM EDT / 2020.07.12 1953 UTC
Wind: from the WSW (240 degrees) at 9 MPH (8 KT):0
Visibility: 10 mile(s):0
Sky conditions: mostly clear
Temperature: 100.0 F (37.8 C)
Dew Point: 34.0 F (1.1 C)
Relative Humidity: 10%
Pressure (altimeter): 29.88 in. Hg (1011 hPa)
ob: KONT 121953Z 24008KT 10SM FEW130 FEW230 38/01 A2988 RMK AO2 SLP094 T03780011
cycle: 20

Station Type Date Time Source
KONT TAF 2020/07/12 18:30 UTC NOAA

TAF KONT 121728Z 1218/1324 25008KT P6SM FEW150
FM122000 26015G22KT P6SM SCT200
FM130500 VRB05KT P6SM SCT200
FM132000 26013G21KT P6SM FEW250

Example: see airport list